sensor_id;sensor_type;location;lat;lon;timestamp;P1;durP1;ratioP1;P2;durP2;ratioP2
52798;SDS011;38667;42.872;74.622;2022-10-16T00:01:30;21.42;;;10.50;;
52798;SDS011;38667;42.872;74.622;2022-10-16T00:03:57;28.02;;;10.23;;
52798;SDS011;38667;42.872;74.622;2022-10-16T00:06:25;25.50;;;11.13;;
52798;SDS011;38667;42.872;74.622;2022-10-16T00:08:54;18.90;;;10.55;;
52798;SDS011;38667;42.872;74.622;2022-10-16T00:11:21;33.75;;;10.52;;
52798;SDS011;38667;42.872;74.622;2022-10-16T00:13:49;26.65;;;10.20;;
52798;SDS011;38667;42.872;74.622;2022-10-16T00:16:18;20.13;;;10.27;;
52798;SDS011;38667;42.872;74.622;2022-10-16T00:18:44;22.08;;;9.80;;
52798;SDS011;38667;42.872;74.622;2022-10-16T00:21:12;22.20;;;9.07;;
52798;SDS011;38667;42.872;74.622;2022-10-16T00:23:39;19.13;;;8.82;;
52798;SDS011;38667;42.872;74.622;2022-10-16T00:26:08;25.92;;;8.80;;
52798;SDS011;38667;42.872;74.622;2022-10-16T00:28:36;22.77;;;8.40;;
52798;SDS011;38667;42.872;74.622;2022-10-16T00:31:03;19.25;;;9.07;;
52798;SDS011;38667;42.872;74.622;2022-10-16T00:33:30;21.65;;;8.55;;
52798;SDS011;38667;42.872;74.622;2022-10-16T00:35:57;25.98;;;10.70;;
52798;SDS011;38667;42.872;74.622;2022-10-16T00:38:23;35.53;;;11.85;;
52798;SDS011;38667;42.872;74.622;2022-10-16T00:40:50;39.13;;;15.57;;
52798;SDS011;38667;42.872;74.622;2022-10-16T00:46:00;33.75;;;11.68;;
52798;SDS011;38667;42.872;74.622;2022-10-16T00:48:28;21.35;;;9.15;;
52798;SDS011;38667;42.872;74.622;2022-10-16T00:50:55;29.85;;;9.00;;
52798;SDS011;38667;42.872;74.622;2022-10-16T00:53:23;26.92;;;9.70;;
52798;SDS011;38667;42.872;74.622;2022-10-16T00:55:50;33.47;;;11.18;;
52798;SDS011;38667;42.872;74.622;2022-10-16T00:58:17;31.95;;;11.65;;
52798;SDS011;38667;42.872;74.622;2022-10-16T01:00:45;27.27;;;10.98;;
52798;SDS011;38667;42.872;74.622;2022-10-16T01:05:58;28.23;;;10.95;;
52798;SDS011;38667;42.872;74.622;2022-10-16T01:08:43;25.85;;;11.00;;
52798;SDS011;38667;42.872;74.622;2022-10-16T01:11:17;23.90;;;11.23;;
52798;SDS011;38667;42.872;74.622;2022-10-16T01:13:50;20.83;;;10.82;;
52798;SDS011;38667;42.872;74.622;2022-10-16T01:16:23;22.67;;;10.45;;
52798;SDS011;38667;42.872;74.622;2022-10-16T01:18:56;31.75;;;10.90;;
52798;SDS011;38667;42.872;74.622;2022-10-16T01:21:29;29.67;;;11.30;;
52798;SDS011;38667;42.872;74.622;2022-10-16T01:24:02;22.70;;;10.52;;
52798;SDS011;38667;42.872;74.622;2022-10-16T01:26:36;37.30;;;12.25;;
52798;SDS011;38667;42.872;74.622;2022-10-16T01:29:16;26.60;;;12.20;;
52798;SDS011;38667;42.872;74.622;2022-10-16T01:31:47;36.63;;;13.55;;
52798;SDS011;38667;42.872;74.622;2022-10-16T01:34:20;41.63;;;14.38;;
52798;SDS011;38667;42.872;74.622;2022-10-16T01:36:51;40.72;;;17.35;;
52798;SDS011;38667;42.872;74.622;2022-10-16T01:39:23;51.20;;;16.85;;
52798;SDS011;38667;42.872;74.622;2022-10-16T01:41:54;57.55;;;17.17;;
52798;SDS011;38667;42.872;74.622;2022-10-16T01:44:25;61.13;;;18.65;;
52798;SDS011;38667;42.872;74.622;2022-10-16T01:46:56;46.38;;;18.25;;
52798;SDS011;38667;42.872;74.622;2022-10-16T01:49:23;57.55;;;20.05;;
52798;SDS011;38667;42.872;74.622;2022-10-16T01:51:54;45.70;;;20.58;;
52798;SDS011;38667;42.872;74.622;2022-10-16T01:54:23;63.20;;;20.27;;
52798;SDS011;38667;42.872;74.622;2022-10-16T01:56:53;52.42;;;18.33;;
52798;SDS011;38667;42.872;74.622;2022-10-16T01:59:21;55.97;;;19.95;;
52798;SDS011;38667;42.872;74.622;2022-10-16T02:01:55;59.95;;;23.50;;
52798;SDS011;38667;42.872;74.622;2022-10-16T02:04:26;74.28;;;25.90;;
52798;SDS011;38667;42.872;74.622;2022-10-16T02:06:56;66.35;;;25.45;;
52798;SDS011;38667;42.872;74.622;2022-10-16T02:09:23;66.38;;;23.30;;
52798;SDS011;38667;42.872;74.622;2022-10-16T02:11:49;65.57;;;22.88;;
52798;SDS011;38667;42.872;74.622;2022-10-16T02:14:17;55.58;;;22.05;;
52798;SDS011;38667;42.872;74.622;2022-10-16T02:16:46;72.13;;;23.27;;
52798;SDS011;38667;42.872;74.622;2022-10-16T02:19:13;64.50;;;21.90;;
52798;SDS011;38667;42.872;74.622;2022-10-16T02:21:43;53.67;;;20.92;;
52798;SDS011;38667;42.872;74.622;2022-10-16T02:24:15;59.13;;;19.27;;
52798;SDS011;38667;42.872;74.622;2022-10-16T02:26:50;60.40;;;18.90;;
52798;SDS011;38667;42.872;74.622;2022-10-16T02:29:23;57.38;;;17.90;;
52798;SDS011;38667;42.872;74.622;2022-10-16T02:31:53;57.38;;;18.75;;
52798;SDS011;38667;42.872;74.622;2022-10-16T02:34:24;40.10;;;12.57;;
52798;SDS011;38667;42.872;74.622;2022-10-16T02:36:52;33.42;;;12.05;;
52798;SDS011;38667;42.872;74.622;2022-10-16T02:39:19;38.35;;;12.75;;
52798;SDS011;38667;42.872;74.622;2022-10-16T02:41:46;65.90;;;17.08;;
52798;SDS011;38667;42.872;74.622;2022-10-16T02:44:13;38.47;;;15.65;;
52798;SDS011;38667;42.872;74.622;2022-10-16T02:46:39;58.28;;;16.92;;
52798;SDS011;38667;42.872;74.622;2022-10-16T02:49:07;67.97;;;18.10;;
52798;SDS011;38667;42.872;74.622;2022-10-16T02:51:33;64.35;;;17.20;;
52798;SDS011;38667;42.872;74.622;2022-10-16T02:54:00;46.70;;;15.93;;
52798;SDS011;38667;42.872;74.622;2022-10-16T02:56:26;40.88;;;15.05;;
52798;SDS011;38667;42.872;74.622;2022-10-16T02:58:53;63.38;;;16.83;;
52798;SDS011;38667;42.872;74.622;2022-10-16T03:01:19;40.10;;;14.65;;
52798;SDS011;38667;42.872;74.622;2022-10-16T03:03:45;45.83;;;15.25;;
52798;SDS011;38667;42.872;74.622;2022-10-16T03:06:13;39.22;;;15.50;;
52798;SDS011;38667;42.872;74.622;2022-10-16T03:08:40;41.92;;;13.75;;
52798;SDS011;38667;42.872;74.622;2022-10-16T03:11:06;37.55;;;13.48;;
52798;SDS011;38667;42.872;74.622;2022-10-16T03:13:32;27.25;;;12.80;;
52798;SDS011;38667;42.872;74.622;2022-10-16T03:15:59;33.88;;;13.93;;
52798;SDS011;38667;42.872;74.622;2022-10-16T03:18:25;26.73;;;13.05;;
52798;SDS011;38667;42.872;74.622;2022-10-16T03:20:51;32.40;;;12.07;;
52798;SDS011;38667;42.872;74.622;2022-10-16T03:23:19;27.35;;;12.10;;
52798;SDS011;38667;42.872;74.622;2022-10-16T03:25:45;31.55;;;11.88;;
52798;SDS011;38667;42.872;74.622;2022-10-16T03:28:12;24.83;;;10.73;;
52798;SDS011;38667;42.872;74.622;2022-10-16T03:30:38;27.08;;;11.80;;
52798;SDS011;38667;42.872;74.622;2022-10-16T03:33:04;23.52;;;11.07;;
52798;SDS011;38667;42.872;74.622;2022-10-16T03:35:31;23.33;;;11.23;;
52798;SDS011;38667;42.872;74.622;2022-10-16T03:37:57;22.17;;;10.55;;
52798;SDS011;38667;42.872;74.622;2022-10-16T03:40:25;27.65;;;11.25;;
52798;SDS011;38667;42.872;74.622;2022-10-16T03:42:52;34.65;;;12.32;;
52798;SDS011;38667;42.872;74.622;2022-10-16T03:45:18;26.48;;;11.32;;
52798;SDS011;38667;42.872;74.622;2022-10-16T03:47:44;28.70;;;10.82;;
52798;SDS011;38667;42.872;74.622;2022-10-16T03:50:10;19.90;;;10.35;;
52798;SDS011;38667;42.872;74.622;2022-10-16T03:52:37;18.83;;;11.07;;
52798;SDS011;38667;42.872;74.622;2022-10-16T03:55:03;24.25;;;10.20;;
52798;SDS011;38667;42.872;74.622;2022-10-16T03:57:32;25.30;;;10.77;;
52798;SDS011;38667;42.872;74.622;2022-10-16T03:59:58;24.25;;;10.10;;
52798;SDS011;38667;42.872;74.622;2022-10-16T04:02:24;24.05;;;10.90;;
52798;SDS011;38667;42.872;74.622;2022-10-16T04:04:51;19.90;;;10.05;;
52798;SDS011;38667;42.872;74.622;2022-10-16T04:07:17;19.77;;;9.85;;
52798;SDS011;38667;42.872;74.622;2022-10-16T04:09:43;19.13;;;9.00;;
52798;SDS011;38667;42.872;74.622;2022-10-16T04:12:10;19.98;;;9.75;;
52798;SDS011;38667;42.872;74.622;2022-10-16T04:14:37;22.67;;;10.50;;
52798;SDS011;38667;42.872;74.622;2022-10-16T04:17:04;29.58;;;12.85;;
52798;SDS011;38667;42.872;74.622;2022-10-16T04:19:30;29.20;;;12.93;;
52798;SDS011;38667;42.872;74.622;2022-10-16T04:21:56;27.33;;;13.57;;
52798;SDS011;38667;42.872;74.622;2022-10-16T04:24:22;37.08;;;14.02;;
52798;SDS011;38667;42.872;74.622;2022-10-16T04:26:49;25.90;;;14.43;;
52798;SDS011;38667;42.872;74.622;2022-10-16T04:29:15;24.42;;;14.50;;
52798;SDS011;38667;42.872;74.622;2022-10-16T04:31:43;30.08;;;13.73;;
52798;SDS011;38667;42.872;74.622;2022-10-16T04:34:09;27.30;;;14.98;;
52798;SDS011;38667;42.872;74.622;2022-10-16T04:36:35;29.08;;;16.63;;
52798;SDS011;38667;42.872;74.622;2022-10-16T04:39:02;40.80;;;18.88;;
52798;SDS011;38667;42.872;74.622;2022-10-16T04:41:28;32.60;;;18.83;;
52798;SDS011;38667;42.872;74.622;2022-10-16T04:43:54;32.55;;;17.33;;
52798;SDS011;38667;42.872;74.622;2022-10-16T04:46:21;29.13;;;15.95;;
52798;SDS011;38667;42.872;74.622;2022-10-16T04:48:48;26.05;;;13.32;;
52798;SDS011;38667;42.872;74.622;2022-10-16T04:51:15;27.30;;;14.73;;
52798;SDS011;38667;42.872;74.622;2022-10-16T04:53:41;23.75;;;13.68;;
52798;SDS011;38667;42.872;74.622;2022-10-16T04:56:07;38.00;;;17.65;;
52798;SDS011;38667;42.872;74.622;2022-10-16T04:58:34;41.25;;;17.35;;
52798;SDS011;38667;42.872;74.622;2022-10-16T05:01:00;32.92;;;18.30;;
52798;SDS011;38667;42.872;74.622;2022-10-16T05:03:26;35.03;;;17.98;;
52798;SDS011;38667;42.872;74.622;2022-10-16T05:05:54;45.25;;;23.17;;
52798;SDS011;38667;42.872;74.622;2022-10-16T05:08:20;44.05;;;23.25;;
52798;SDS011;38667;42.872;74.622;2022-10-16T05:10:46;40.28;;;21.90;;
52798;SDS011;38667;42.872;74.622;2022-10-16T05:13:13;35.95;;;20.17;;
52798;SDS011;38667;42.872;74.622;2022-10-16T05:15:39;32.17;;;18.60;;
52798;SDS011;38667;42.872;74.622;2022-10-16T05:18:05;27.13;;;14.83;;
52798;SDS011;38667;42.872;74.622;2022-10-16T05:20:32;28.70;;;14.18;;
52798;SDS011;38667;42.872;74.622;2022-10-16T05:22:59;28.58;;;13.73;;
52798;SDS011;38667;42.872;74.622;2022-10-16T05:25:26;27.05;;;14.07;;
52798;SDS011;38667;42.872;74.622;2022-10-16T05:27:52;31.75;;;14.43;;
52798;SDS011;38667;42.872;74.622;2022-10-16T05:30:19;26.75;;;13.52;;
52798;SDS011;38667;42.872;74.622;2022-10-16T05:32:46;28.55;;;14.27;;
52798;SDS011;38667;42.872;74.622;2022-10-16T05:35:12;26.42;;;13.10;;
52798;SDS011;38667;42.872;74.622;2022-10-16T05:37:39;29.15;;;13.43;;
52798;SDS011;38667;42.872;74.622;2022-10-16T05:40:07;34.67;;;15.73;;
52798;SDS011;38667;42.872;74.622;2022-10-16T05:42:34;32.00;;;14.63;;
52798;SDS011;38667;42.872;74.622;2022-10-16T05:45:00;38.45;;;16.15;;
52798;SDS011;38667;42.872;74.622;2022-10-16T05:47:27;29.70;;;12.95;;
52798;SDS011;38667;42.872;74.622;2022-10-16T05:49:53;22.63;;;11.77;;
52798;SDS011;38667;42.872;74.622;2022-10-16T05:52:19;23.73;;;11.40;;
52798;SDS011;38667;42.872;74.622;2022-10-16T05:54:46;20.20;;;10.48;;
52798;SDS011;38667;42.872;74.622;2022-10-16T05:57:13;18.73;;;9.35;;
52798;SDS011;38667;42.872;74.622;2022-10-16T05:59:40;27.27;;;9.02;;
52798;SDS011;38667;42.872;74.622;2022-10-16T06:02:07;18.30;;;8.77;;
52798;SDS011;38667;42.872;74.622;2022-10-16T06:04:37;20.67;;;8.95;;
52798;SDS011;38667;42.872;74.622;2022-10-16T06:07:03;23.70;;;8.75;;
52798;SDS011;38667;42.872;74.622;2022-10-16T06:09:29;18.90;;;9.38;;
52798;SDS011;38667;42.872;74.622;2022-10-16T06:11:56;20.60;;;9.48;;
52798;SDS011;38667;42.872;74.622;2022-10-16T06:14:24;20.65;;;8.80;;
52798;SDS011;38667;42.872;74.622;2022-10-16T06:16:51;18.85;;;9.75;;
52798;SDS011;38667;42.872;74.622;2022-10-16T06:19:17;23.02;;;8.82;;
52798;SDS011;38667;42.872;74.622;2022-10-16T06:21:43;21.67;;;8.60;;
52798;SDS011;38667;42.872;74.622;2022-10-16T06:24:10;18.42;;;8.02;;
52798;SDS011;38667;42.872;74.622;2022-10-16T06:26:36;18.17;;;7.57;;
52798;SDS011;38667;42.872;74.622;2022-10-16T06:29:03;19.38;;;8.98;;
52798;SDS011;38667;42.872;74.622;2022-10-16T06:31:31;28.10;;;10.50;;
52798;SDS011;38667;42.872;74.622;2022-10-16T06:33:57;21.27;;;10.07;;
52798;SDS011;38667;42.872;74.622;2022-10-16T06:36:24;21.40;;;9.25;;
52798;SDS011;38667;42.872;74.622;2022-10-16T06:38:51;34.25;;;10.90;;
52798;SDS011;38667;42.872;74.622;2022-10-16T06:41:18;30.95;;;10.43;;
52798;SDS011;38667;42.872;74.622;2022-10-16T06:43:45;29.88;;;10.32;;
52798;SDS011;38667;42.872;74.622;2022-10-16T06:46:12;31.02;;;12.18;;
52798;SDS011;38667;42.872;74.622;2022-10-16T06:48:41;30.67;;;13.13;;
52798;SDS011;38667;42.872;74.622;2022-10-16T06:51:09;40.03;;;15.15;;
52798;SDS011;38667;42.872;74.622;2022-10-16T06:53:37;39.17;;;16.75;;
52798;SDS011;38667;42.872;74.622;2022-10-16T06:56:09;34.63;;;17.35;;
52798;SDS011;38667;42.872;74.622;2022-10-16T06:58:36;51.17;;;20.67;;
52798;SDS011;38667;42.872;74.622;2022-10-16T07:01:02;62.72;;;28.67;;
52798;SDS011;38667;42.872;74.622;2022-10-16T07:03:29;64.93;;;28.55;;
52798;SDS011;38667;42.872;74.622;2022-10-16T07:06:00;56.63;;;26.02;;
52798;SDS011;38667;42.872;74.622;2022-10-16T07:08:27;54.38;;;25.73;;
52798;SDS011;38667;42.872;74.622;2022-10-16T07:10:58;55.45;;;25.23;;
52798;SDS011;38667;42.872;74.622;2022-10-16T07:13:25;48.70;;;23.70;;
52798;SDS011;38667;42.872;74.622;2022-10-16T07:15:51;49.97;;;22.83;;
52798;SDS011;38667;42.872;74.622;2022-10-16T07:18:18;55.70;;;23.30;;
52798;SDS011;38667;42.872;74.622;2022-10-16T07:20:44;57.33;;;23.10;;
52798;SDS011;38667;42.872;74.622;2022-10-16T07:23:12;43.00;;;20.65;;
52798;SDS011;38667;42.872;74.622;2022-10-16T07:25:38;44.65;;;21.00;;
52798;SDS011;38667;42.872;74.622;2022-10-16T07:28:05;45.15;;;20.27;;
52798;SDS011;38667;42.872;74.622;2022-10-16T07:30:31;40.75;;;20.17;;
52798;SDS011;38667;42.872;74.622;2022-10-16T07:33:00;39.97;;;18.92;;
52798;SDS011;38667;42.872;74.622;2022-10-16T07:35:26;41.42;;;16.98;;
52798;SDS011;38667;42.872;74.622;2022-10-16T07:37:53;31.17;;;14.20;;
52798;SDS011;38667;42.872;74.622;2022-10-16T07:40:21;30.08;;;13.45;;
52798;SDS011;38667;42.872;74.622;2022-10-16T07:42:47;31.02;;;11.98;;
52798;SDS011;38667;42.872;74.622;2022-10-16T07:45:13;24.98;;;10.35;;
52798;SDS011;38667;42.872;74.622;2022-10-16T07:47:40;21.73;;;10.07;;
52798;SDS011;38667;42.872;74.622;2022-10-16T07:50:06;26.42;;;10.02;;
52798;SDS011;38667;42.872;74.622;2022-10-16T07:52:33;23.35;;;8.90;;
52798;SDS011;38667;42.872;74.622;2022-10-16T07:54:59;24.42;;;9.48;;
52798;SDS011;38667;42.872;74.622;2022-10-16T07:57:27;21.38;;;10.52;;
52798;SDS011;38667;42.872;74.622;2022-10-16T07:59:54;31.13;;;10.57;;
52798;SDS011;38667;42.872;74.622;2022-10-16T08:02:20;22.23;;;11.30;;
52798;SDS011;38667;42.872;74.622;2022-10-16T08:04:46;28.38;;;11.20;;
52798;SDS011;38667;42.872;74.622;2022-10-16T08:07:13;29.88;;;11.05;;
52798;SDS011;38667;42.872;74.622;2022-10-16T08:09:39;25.00;;;11.52;;
52798;SDS011;38667;42.872;74.622;2022-10-16T08:12:05;26.77;;;11.23;;
52798;SDS011;38667;42.872;74.622;2022-10-16T08:14:34;23.98;;;10.55;;
52798;SDS011;38667;42.872;74.622;2022-10-16T08:17:01;25.88;;;11.15;;
52798;SDS011;38667;42.872;74.622;2022-10-16T08:19:27;33.50;;;12.23;;
52798;SDS011;38667;42.872;74.622;2022-10-16T08:21:54;25.92;;;11.35;;
52798;SDS011;38667;42.872;74.622;2022-10-16T08:24:20;33.42;;;11.88;;
52798;SDS011;38667;42.872;74.622;2022-10-16T08:26:46;28.70;;;11.65;;
52798;SDS011;38667;42.872;74.622;2022-10-16T08:29:13;29.67;;;12.38;;
52798;SDS011;38667;42.872;74.622;2022-10-16T08:31:41;26.52;;;11.93;;
52798;SDS011;38667;42.872;74.622;2022-10-16T08:34:07;31.10;;;12.38;;
52798;SDS011;38667;42.872;74.622;2022-10-16T08:36:34;27.88;;;13.60;;
52798;SDS011;38667;42.872;74.622;2022-10-16T08:39:00;35.15;;;14.27;;
52798;SDS011;38667;42.872;74.622;2022-10-16T08:41:37;34.83;;;14.13;;
52798;SDS011;38667;42.872;74.622;2022-10-16T08:44:54;24.77;;;14.13;;
52798;SDS011;38667;42.872;74.622;2022-10-16T08:47:52;30.25;;;15.60;;
52798;SDS011;38667;42.872;74.622;2022-10-16T08:50:26;31.90;;;15.80;;
52798;SDS011;38667;42.872;74.622;2022-10-16T08:52:54;30.25;;;15.90;;
52798;SDS011;38667;42.872;74.622;2022-10-16T08:55:29;47.95;;;16.65;;
52798;SDS011;38667;42.872;74.622;2022-10-16T08:57:59;39.83;;;15.48;;
52798;SDS011;38667;42.872;74.622;2022-10-16T09:00:25;31.05;;;16.02;;
52798;SDS011;38667;42.872;74.622;2022-10-16T09:02:55;32.92;;;15.30;;
52798;SDS011;38667;42.872;74.622;2022-10-16T09:05:40;40.47;;;14.23;;
52798;SDS011;38667;42.872;74.622;2022-10-16T09:08:21;28.25;;;13.63;;
52798;SDS011;38667;42.872;74.622;2022-10-16T09:10:55;29.67;;;14.65;;
52798;SDS011;38667;42.872;74.622;2022-10-16T09:13:23;29.85;;;13.50;;
52798;SDS011;38667;42.872;74.622;2022-10-16T09:15:55;31.60;;;13.68;;
52798;SDS011;38667;42.872;74.622;2022-10-16T09:18:37;43.13;;;14.30;;
52798;SDS011;38667;42.872;74.622;2022-10-16T09:21:13;31.13;;;14.82;;
52798;SDS011;38667;42.872;74.622;2022-10-16T09:23:43;27.42;;;14.45;;
52798;SDS011;38667;42.872;74.622;2022-10-16T09:26:10;37.00;;;15.00;;
52798;SDS011;38667;42.872;74.622;2022-10-16T09:28:38;29.05;;;13.75;;
52798;SDS011;38667;42.872;74.622;2022-10-16T09:31:05;32.00;;;13.30;;
52798;SDS011;38667;42.872;74.622;2022-10-16T09:33:37;29.67;;;12.50;;
52798;SDS011;38667;42.872;74.622;2022-10-16T09:36:06;25.83;;;12.85;;
52798;SDS011;38667;42.872;74.622;2022-10-16T09:38:35;29.67;;;12.68;;
52798;SDS011;38667;42.872;74.622;2022-10-16T09:41:02;27.30;;;11.98;;
52798;SDS011;38667;42.872;74.622;2022-10-16T09:43:38;26.70;;;12.10;;
52798;SDS011;38667;42.872;74.622;2022-10-16T09:46:07;29.60;;;11.80;;
52798;SDS011;38667;42.872;74.622;2022-10-16T09:48:48;28.10;;;10.88;;
52798;SDS011;38667;42.872;74.622;2022-10-16T09:51:17;32.35;;;10.68;;
52798;SDS011;38667;42.872;74.622;2022-10-16T09:53:46;27.20;;;10.48;;
52798;SDS011;38667;42.872;74.622;2022-10-16T09:56:20;33.60;;;10.63;;
52798;SDS011;38667;42.872;74.622;2022-10-16T09:58:49;21.83;;;9.95;;
52798;SDS011;38667;42.872;74.622;2022-10-16T10:01:16;28.70;;;10.80;;
52798;SDS011;38667;42.872;74.622;2022-10-16T10:03:42;35.58;;;10.45;;
52798;SDS011;38667;42.872;74.622;2022-10-16T10:09:00;27.05;;;10.27;;
52798;SDS011;38667;42.872;74.622;2022-10-16T10:11:36;27.98;;;9.10;;
52798;SDS011;38667;42.872;74.622;2022-10-16T10:14:09;20.42;;;8.18;;
52798;SDS011;38667;42.872;74.622;2022-10-16T10:16:45;24.00;;;9.13;;
52798;SDS011;38667;42.872;74.622;2022-10-16T10:19:16;28.40;;;8.10;;
52798;SDS011;38667;42.872;74.622;2022-10-16T10:21:45;19.33;;;7.85;;
52798;SDS011;38667;42.872;74.622;2022-10-16T10:24:12;16.38;;;8.43;;
52798;SDS011;38667;42.872;74.622;2022-10-16T10:26:42;19.52;;;7.93;;
52798;SDS011;38667;42.872;74.622;2022-10-16T10:29:15;19.95;;;7.72;;
52798;SDS011;38667;42.872;74.622;2022-10-16T10:31:51;15.57;;;6.95;;
52798;SDS011;38667;42.872;74.622;2022-10-16T10:34:30;19.58;;;7.45;;
52798;SDS011;38667;42.872;74.622;2022-10-16T10:37:20;23.77;;;7.50;;
52798;SDS011;38667;42.872;74.622;2022-10-16T10:39:56;20.02;;;7.15;;
52798;SDS011;38667;42.872;74.622;2022-10-16T10:42:26;18.02;;;7.35;;
52798;SDS011;38667;42.872;74.622;2022-10-16T10:45:07;20.08;;;7.32;;
52798;SDS011;38667;42.872;74.622;2022-10-16T10:47:45;17.08;;;7.13;;
52798;SDS011;38667;42.872;74.622;2022-10-16T10:50:22;17.17;;;7.95;;
52798;SDS011;38667;42.872;74.622;2022-10-16T10:52:59;17.55;;;6.85;;
52798;SDS011;38667;42.872;74.622;2022-10-16T10:55:36;15.52;;;7.70;;
52798;SDS011;38667;42.872;74.622;2022-10-16T10:58:18;16.33;;;6.60;;
52798;SDS011;38667;42.872;74.622;2022-10-16T11:01:07;20.83;;;7.00;;
52798;SDS011;38667;42.872;74.622;2022-10-16T11:03:40;16.17;;;6.78;;
52798;SDS011;38667;42.872;74.622;2022-10-16T11:06:20;17.92;;;7.50;;
52798;SDS011;38667;42.872;74.622;2022-10-16T11:08:52;19.48;;;7.00;;
52798;SDS011;38667;42.872;74.622;2022-10-16T11:11:23;22.40;;;7.45;;
52798;SDS011;38667;42.872;74.622;2022-10-16T11:13:55;21.65;;;7.93;;
52798;SDS011;38667;42.872;74.622;2022-10-16T11:16:26;21.75;;;7.53;;
52798;SDS011;38667;42.872;74.622;2022-10-16T11:18:56;12.77;;;6.43;;
52798;SDS011;38667;42.872;74.622;2022-10-16T11:21:29;22.45;;;6.82;;
52798;SDS011;38667;42.872;74.622;2022-10-16T11:24:02;14.25;;;7.07;;
52798;SDS011;38667;42.872;74.622;2022-10-16T11:26:39;21.85;;;7.25;;
52798;SDS011;38667;42.872;74.622;2022-10-16T11:29:10;25.25;;;8.88;;
52798;SDS011;38667;42.872;74.622;2022-10-16T11:31:43;13.80;;;7.30;;
52798;SDS011;38667;42.872;74.622;2022-10-16T11:34:15;15.30;;;7.88;;
52798;SDS011;38667;42.872;74.622;2022-10-16T11:36:48;26.17;;;8.38;;
52798;SDS011;38667;42.872;74.622;2022-10-16T11:39:20;24.77;;;8.32;;
52798;SDS011;38667;42.872;74.622;2022-10-16T11:41:48;17.33;;;8.43;;
52798;SDS011;38667;42.872;74.622;2022-10-16T11:44:20;23.38;;;8.88;;
52798;SDS011;38667;42.872;74.622;2022-10-16T11:46:59;16.98;;;8.80;;
52798;SDS011;38667;42.872;74.622;2022-10-16T11:49:33;22.35;;;9.20;;
52798;SDS011;38667;42.872;74.622;2022-10-16T11:52:03;24.10;;;8.65;;
52798;SDS011;38667;42.872;74.622;2022-10-16T11:54:38;29.83;;;9.63;;
52798;SDS011;38667;42.872;74.622;2022-10-16T11:57:11;25.55;;;10.15;;
52798;SDS011;38667;42.872;74.622;2022-10-16T11:59:42;22.02;;;9.77;;
52798;SDS011;38667;42.872;74.622;2022-10-16T12:02:25;24.25;;;10.23;;
52798;SDS011;38667;42.872;74.622;2022-10-16T12:05:11;29.58;;;12.45;;
52798;SDS011;38667;42.872;74.622;2022-10-16T12:07:46;24.52;;;12.73;;
52798;SDS011;38667;42.872;74.622;2022-10-16T12:10:23;31.67;;;13.82;;
52798;SDS011;38667;42.872;74.622;2022-10-16T12:12:51;31.38;;;13.85;;
52798;SDS011;38667;42.872;74.622;2022-10-16T12:15:19;31.83;;;16.02;;
52798;SDS011;38667;42.872;74.622;2022-10-16T12:17:47;39.63;;;17.38;;
52798;SDS011;38667;42.872;74.622;2022-10-16T12:20:21;41.53;;;16.63;;
52798;SDS011;38667;42.872;74.622;2022-10-16T12:22:51;37.53;;;15.80;;
52798;SDS011;38667;42.872;74.622;2022-10-16T12:25:24;38.08;;;16.02;;
52798;SDS011;38667;42.872;74.622;2022-10-16T12:27:59;37.72;;;16.02;;
52798;SDS011;38667;42.872;74.622;2022-10-16T12:30:28;38.55;;;15.82;;
52798;SDS011;38667;42.872;74.622;2022-10-16T12:32:56;50.50;;;16.85;;
52798;SDS011;38667;42.872;74.622;2022-10-16T12:35:25;72.15;;;16.50;;
52798;SDS011;38667;42.872;74.622;2022-10-16T12:37:54;33.85;;;14.75;;
52798;SDS011;38667;42.872;74.622;2022-10-16T12:40:41;37.28;;;15.23;;
52798;SDS011;38667;42.872;74.622;2022-10-16T12:46:01;38.50;;;14.35;;
52798;SDS011;38667;42.872;74.622;2022-10-16T12:48:29;44.17;;;16.30;;
52798;SDS011;38667;42.872;74.622;2022-10-16T12:50:55;61.13;;;22.75;;
52798;SDS011;38667;42.872;74.622;2022-10-16T12:53:23;56.08;;;24.60;;
52798;SDS011;38667;42.872;74.622;2022-10-16T12:55:57;56.90;;;23.98;;
52798;SDS011;38667;42.872;74.622;2022-10-16T12:58:34;60.97;;;27.70;;
52798;SDS011;38667;42.872;74.622;2022-10-16T13:01:12;75.88;;;30.58;;
52798;SDS011;38667;42.872;74.622;2022-10-16T13:03:56;66.82;;;28.45;;
52798;SDS011;38667;42.872;74.622;2022-10-16T13:06:39;72.13;;;28.30;;
52798;SDS011;38667;42.872;74.622;2022-10-16T13:09:19;66.47;;;27.95;;
52798;SDS011;38667;42.872;74.622;2022-10-16T13:12:10;66.30;;;27.20;;
52798;SDS011;38667;42.872;74.622;2022-10-16T13:15:06;55.47;;;25.10;;
52798;SDS011;38667;42.872;74.622;2022-10-16T13:17:46;56.45;;;24.95;;
52798;SDS011;38667;42.872;74.622;2022-10-16T13:20:21;63.30;;;26.00;;
52798;SDS011;38667;42.872;74.622;2022-10-16T13:22:56;63.30;;;27.27;;
52798;SDS011;38667;42.872;74.622;2022-10-16T13:25:34;57.05;;;25.38;;
52798;SDS011;38667;42.872;74.622;2022-10-16T13:28:11;57.50;;;25.02;;
52798;SDS011;38667;42.872;74.622;2022-10-16T13:30:39;55.03;;;25.10;;
52798;SDS011;38667;42.872;74.622;2022-10-16T13:33:10;47.58;;;22.63;;
52798;SDS011;38667;42.872;74.622;2022-10-16T13:35:47;53.28;;;21.90;;
52798;SDS011;38667;42.872;74.622;2022-10-16T13:38:15;69.68;;;25.15;;
52798;SDS011;38667;42.872;74.622;2022-10-16T13:40:50;80.95;;;26.52;;
52798;SDS011;38667;42.872;74.622;2022-10-16T13:43:20;71.70;;;27.30;;
52798;SDS011;38667;42.872;74.622;2022-10-16T13:45:54;76.30;;;26.88;;
52798;SDS011;38667;42.872;74.622;2022-10-16T13:48:22;74.05;;;27.25;;
52798;SDS011;38667;42.872;74.622;2022-10-16T13:50:58;68.03;;;25.00;;
52798;SDS011;38667;42.872;74.622;2022-10-16T13:53:30;66.88;;;26.25;;
52798;SDS011;38667;42.872;74.622;2022-10-16T13:55:57;71.40;;;27.23;;
52798;SDS011;38667;42.872;74.622;2022-10-16T13:58:25;74.10;;;28.85;;
52798;SDS011;38667;42.872;74.622;2022-10-16T14:00:55;66.82;;;27.88;;
52798;SDS011;38667;42.872;74.622;2022-10-16T14:03:23;72.07;;;29.27;;
52798;SDS011;38667;42.872;74.622;2022-10-16T14:05:51;72.68;;;28.13;;
52798;SDS011;38667;42.872;74.622;2022-10-16T14:08:18;68.18;;;28.27;;
52798;SDS011;38667;42.872;74.622;2022-10-16T14:10:47;81.88;;;29.88;;
52798;SDS011;38667;42.872;74.622;2022-10-16T14:13:15;72.25;;;29.00;;
52798;SDS011;38667;42.872;74.622;2022-10-16T14:15:46;74.47;;;28.67;;
52798;SDS011;38667;42.872;74.622;2022-10-16T14:18:16;72.60;;;31.48;;
52798;SDS011;38667;42.872;74.622;2022-10-16T14:20:45;92.07;;;31.85;;
52798;SDS011;38667;42.872;74.622;2022-10-16T14:23:20;93.82;;;33.38;;
52798;SDS011;38667;42.872;74.622;2022-10-16T14:25:48;90.28;;;37.75;;
52798;SDS011;38667;42.872;74.622;2022-10-16T14:28:15;112.30;;;39.67;;
52798;SDS011;38667;42.872;74.622;2022-10-16T14:30:51;100.97;;;38.83;;
52798;SDS011;38667;42.872;74.622;2022-10-16T14:33:20;104.13;;;40.15;;
52798;SDS011;38667;42.872;74.622;2022-10-16T14:35:56;101.00;;;40.17;;
52798;SDS011;38667;42.872;74.622;2022-10-16T14:38:27;104.20;;;41.90;;